Nibulon 1 — UUAS4 — position and weather

sailwx.info

Track history (hours):
 
Tides and Currents Weather Stations Pressure Air Temp Water Temp Dewpoint Dewpoint Depression Visibility Wind Speed Wind Dir Waves Ship Positions

Nibulon 1

Last reported at 2017-Mar-27 10:33 UTC. Time now 2017-Mar-27 10:49 UTC.
Position N 47°52' E 035°06'.

Length 38 m; draft 2.6 m.

Type: Tug. MMSI: 272641000.

Date/timePositionNaut miles runAvg speedWind from/ knotsBaromVisibWave heightAir tempDewpointWater temp
2017-Mar-27 10:33N 47°52' E 035°06'1 0.9
2017-Mar-27 09:33N 47°52' E 035°05'2 1.9
2017-Mar-27 08:33N 47°50' E 035°06'2 2.4
2017-Mar-27 07:33N 47°49' E 035°09'2 2.0
2017-Mar-27 06:33N 47°47' E 035°09'5 4.5
2017-Mar-27 05:33N 47°42' E 035°08'5 4.8
2017-Mar-27 04:33N 47°38' E 035°05'5 4.8
2017-Mar-27 03:33N 47°34' E 035°00'6 5.3
2017-Mar-27 02:28N 47°33' E 034°52'5 5.1
2017-Mar-27 01:33N 47°31' E 034°45'5 5.1
2017-Mar-27 00:32N 47°33' E 034°38'5 5.2
2017-Mar-26 23:33N 47°35' E 034°31'112 4.3
2017-Mar-25 21:20N 46°33' E 032°14'4 5.5
2017-Mar-25 20:33N 46°32' E 032°08'1 1.3
2017-Mar-25 19:32N 46°32' E 032°06'0 0.0
2017-Mar-25 18:33N 46°32' E 032°06'0 0.0
2017-Mar-25 17:25N 46°32' E 032°06'1 1.2
2017-Mar-25 16:32N 46°32' E 032°07'102 2.8
2017-Mar-24 04:30N 47°29' E 034°11'4 3.8
2017-Mar-24 03:33N 47°31' E 034°16'14 3.5
2017-Mar-23 23:31N 47°33' E 034°36'4 3.6
2017-Mar-23 22:18N 47°32' E 034°42'3 3.4
2017-Mar-23 21:33N 47°31' E 034°46'3 3.4
2017-Mar-23 20:33N 47°32' E 034°51'7 3.7
2017-Mar-23 18:33N 47°34' E 035°01'4 3.8
2017-Mar-23 17:34N 47°38' E 035°04'4 3.8
2017-Mar-23 16:33N 47°41' E 035°08'4 3.7
2017-Mar-23 15:33N 47°44' E 035°10'4 3.9
2017-Mar-23 14:34N 47°48' E 035°10'1 1.4
2017-Mar-23 13:34N 47°49' E 035°09'4 3.3
2017-Mar-23 12:29N 47°52' E 035°06'0 0.5
2017-Mar-23 11:33N 47°52' E 035°06'0 0.5
2017-Mar-23 10:33N 47°52' E 035°05'3 3.0
2017-Mar-23 09:33N 47°49' E 035°08'1 0.6
2017-Mar-23 08:33N 47°49' E 035°09'4 3.4
2017-Mar-23 07:32N 47°52' E 035°05'0 0.0
2017-Mar-23 06:33N 47°52' E 035°05'1 1.0
2017-Mar-23 05:33N 47°53' E 035°06'0 0.0
2017-Mar-23 04:33N 47°53' E 035°06'0 0.0
2017-Mar-23 03:33N 47°53' E 035°06'0 0.0
2017-Mar-23 02:33N 47°53' E 035°06'0 0.0
2017-Mar-23 01:33N 47°53' E 035°06'1 0.9
2017-Mar-23 00:33N 47°54' E 035°06'4 4.0
2017-Mar-22 23:33N 47°58' E 035°07'4 4.0
2017-Mar-22 22:27N 48°02' E 035°07'  
2017-Mar-17 14:20N 48°04' E 035°05'4 5.4
2017-Mar-17 13:33N 47°60' E 035°08'6 5.8
2017-Mar-17 12:33N 47°54' E 035°06'2 2.4
2017-Mar-17 11:33N 47°52' E 035°05'  
Track history (hours):
 
Tides and Currents Weather Stations Pressure Air Temp Water Temp Dewpoint Dewpoint Depression Visibility Wind Speed Wind Dir Waves Ship Positions

Nibulon 1

Last reported at 2017-Mar-27 10:33 UTC. Time now 2017-Mar-27 10:49 UTC.
Position N 47°52' E 035°06'.

Length 38 m; draft 2.6 m.

Type: Tug. MMSI: 272641000.

Date/timePositionNaut miles runAvg speedWind from/ knotsBaromVisibWave heightAir tempDewpointWater temp
2017-Mar-27 10:33N 47°52' E 035°06'1 0.9
2017-Mar-27 09:33N 47°52' E 035°05'2 1.9
2017-Mar-27 08:33N 47°50' E 035°06'2 2.4
2017-Mar-27 07:33N 47°49' E 035°09'2 2.0
2017-Mar-27 06:33N 47°47' E 035°09'5 4.5
2017-Mar-27 05:33N 47°42' E 035°08'5 4.8
2017-Mar-27 04:33N 47°38' E 035°05'5 4.8
2017-Mar-27 03:33N 47°34' E 035°00'6 5.3
2017-Mar-27 02:28N 47°33' E 034°52'5 5.1
2017-Mar-27 01:33N 47°31' E 034°45'5 5.1
2017-Mar-27 00:32N 47°33' E 034°38'5 5.2
2017-Mar-26 23:33N 47°35' E 034°31'112 4.3
2017-Mar-25 21:20N 46°33' E 032°14'4 5.5
2017-Mar-25 20:33N 46°32' E 032°08'1 1.3
2017-Mar-25 19:32N 46°32' E 032°06'0 0.0
2017-Mar-25 18:33N 46°32' E 032°06'0 0.0
2017-Mar-25 17:25N 46°32' E 032°06'1 1.2
2017-Mar-25 16:32N 46°32' E 032°07'102 2.8
2017-Mar-24 04:30N 47°29' E 034°11'4 3.8
2017-Mar-24 03:33N 47°31' E 034°16'14 3.5
2017-Mar-23 23:31N 47°33' E 034°36'4 3.6
2017-Mar-23 22:18N 47°32' E 034°42'3 3.4
2017-Mar-23 21:33N 47°31' E 034°46'3 3.4
2017-Mar-23 20:33N 47°32' E 034°51'7 3.7
2017-Mar-23 18:33N 47°34' E 035°01'4 3.8
2017-Mar-23 17:34N 47°38' E 035°04'4 3.8
2017-Mar-23 16:33N 47°41' E 035°08'4 3.7
2017-Mar-23 15:33N 47°44' E 035°10'4 3.9
2017-Mar-23 14:34N 47°48' E 035°10'1 1.4
2017-Mar-23 13:34N 47°49' E 035°09'4 3.3
2017-Mar-23 12:29N 47°52' E 035°06'0 0.5
2017-Mar-23 11:33N 47°52' E 035°06'0 0.5
2017-Mar-23 10:33N 47°52' E 035°05'3 3.0
2017-Mar-23 09:33N 47°49' E 035°08'1 0.6
2017-Mar-23 08:33N 47°49' E 035°09'4 3.4
2017-Mar-23 07:32N 47°52' E 035°05'0 0.0
2017-Mar-23 06:33N 47°52' E 035°05'1 1.0
2017-Mar-23 05:33N 47°53' E 035°06'0 0.0
2017-Mar-23 04:33N 47°53' E 035°06'0 0.0
2017-Mar-23 03:33N 47°53' E 035°06'0 0.0
2017-Mar-23 02:33N 47°53' E 035°06'0 0.0
2017-Mar-23 01:33N 47°53' E 035°06'1 0.9
2017-Mar-23 00:33N 47°54' E 035°06'4 4.0
2017-Mar-22 23:33N 47°58' E 035°07'4 4.0
2017-Mar-22 22:27N 48°02' E 035°07'  
2017-Mar-17 14:20N 48°04' E 035°05'4 5.4
2017-Mar-17 13:33N 47°60' E 035°08'6 5.8
2017-Mar-17 12:33N 47°54' E 035°06'2 2.4
2017-Mar-17 11:33N 47°52' E 035°05'  

Dump ship's entire track history